sensor_id;sensor_type;location;lat;lon;timestamp;pressure;altitude;pressure_sealevel;temperature;humidity
10978;BME280;5542;48.272;10.794;2022-07-23T00:00:18;95782.16;;;24.81;47.47
10978;BME280;5542;48.272;10.794;2022-07-23T00:02:45;95789.59;;;24.75;47.81
10978;BME280;5542;48.272;10.794;2022-07-23T00:05:11;95809.38;;;24.79;47.83
10978;BME280;5542;48.272;10.794;2022-07-23T00:07:38;95820.91;;;24.80;47.72
10978;BME280;5542;48.272;10.794;2022-07-23T00:10:07;95842.75;;;24.95;47.06
10978;BME280;5542;48.272;10.794;2022-07-23T00:12:34;95876.94;;;24.95;46.98
10978;BME280;5542;48.272;10.794;2022-07-23T00:15:02;95874.06;;;24.83;48.03
10978;BME280;5542;48.272;10.794;2022-07-23T00:17:28;95873.09;;;24.61;49.39
10978;BME280;5542;48.272;10.794;2022-07-23T00:19:55;95874.84;;;24.57;49.30
10978;BME280;5542;48.272;10.794;2022-07-23T00:22:21;95892.03;;;24.39;50.88
10978;BME280;5542;48.272;10.794;2022-07-23T00:24:48;95902.84;;;24.25;50.99
10978;BME280;5542;48.272;10.794;2022-07-23T00:27:16;95900.22;;;23.94;52.60
10978;BME280;5542;48.272;10.794;2022-07-23T00:29:43;95899.00;;;23.77;53.46
10978;BME280;5542;48.272;10.794;2022-07-23T00:32:09;95900.84;;;23.68;53.98
10978;BME280;5542;48.272;10.794;2022-07-23T00:34:36;95920.84;;;23.62;54.91
10978;BME280;5542;48.272;10.794;2022-07-23T00:37:02;95933.00;;;23.60;56.98
10978;BME280;5542;48.272;10.794;2022-07-23T00:39:29;95945.06;;;23.48;57.78
10978;BME280;5542;48.272;10.794;2022-07-23T00:41:55;95954.75;;;23.36;59.66
10978;BME280;5542;48.272;10.794;2022-07-23T00:44:24;95981.47;;;23.18;60.86
10978;BME280;5542;48.272;10.794;2022-07-23T00:46:53;96001.06;;;22.78;62.02
10978;BME280;5542;48.272;10.794;2022-07-23T00:49:20;96004.88;;;22.16;63.81
10978;BME280;5542;48.272;10.794;2022-07-23T00:51:47;96003.28;;;21.83;66.04
10978;BME280;5542;48.272;10.794;2022-07-23T00:54:14;96012.59;;;21.71;66.51
10978;BME280;5542;48.272;10.794;2022-07-23T00:56:41;96024.81;;;21.59;67.75
10978;BME280;5542;48.272;10.794;2022-07-23T00:59:08;96034.22;;;21.56;68.27
10978;BME280;5542;48.272;10.794;2022-07-23T01:01:37;96042.91;;;21.48;69.38
10978;BME280;5542;48.272;10.794;2022-07-23T01:04:04;96042.47;;;21.41;70.29
10978;BME280;5542;48.272;10.794;2022-07-23T01:06:34;96036.59;;;21.39;71.08
10978;BME280;5542;48.272;10.794;2022-07-23T01:09:02;96022.97;;;21.16;71.14
10978;BME280;5542;48.272;10.794;2022-07-23T01:11:30;95993.84;;;20.96;72.20
10978;BME280;5542;48.272;10.794;2022-07-23T01:13:57;95994.69;;;20.91;71.81
10978;BME280;5542;48.272;10.794;2022-07-23T01:16:24;95984.50;;;20.93;72.09
10978;BME280;5542;48.272;10.794;2022-07-23T01:18:52;96001.69;;;20.87;72.47
10978;BME280;5542;48.272;10.794;2022-07-23T01:21:18;96001.63;;;20.92;72.25
10978;BME280;5542;48.272;10.794;2022-07-23T01:23:46;95987.19;;;20.69;73.24
10978;BME280;5542;48.272;10.794;2022-07-23T01:26:13;95981.50;;;20.28;75.04
10978;BME280;5542;48.272;10.794;2022-07-23T01:28:42;95957.19;;;20.06;76.97
10978;BME280;5542;48.272;10.794;2022-07-23T01:31:09;95926.16;;;19.86;77.52
10978;BME280;5542;48.272;10.794;2022-07-23T01:33:35;95903.47;;;19.83;78.17
10978;BME280;5542;48.272;10.794;2022-07-23T01:36:02;95902.63;;;19.88;77.95
10978;BME280;5542;48.272;10.794;2022-07-23T01:38:29;95898.72;;;20.04;77.94
10978;BME280;5542;48.272;10.794;2022-07-23T01:40:57;95900.75;;;20.12;77.27
10978;BME280;5542;48.272;10.794;2022-07-23T01:43:23;95900.75;;;20.36;76.79
10978;BME280;5542;48.272;10.794;2022-07-23T01:45:50;95902.41;;;20.56;76.55
10978;BME280;5542;48.272;10.794;2022-07-23T01:48:16;95900.81;;;20.74;75.84
10978;BME280;5542;48.272;10.794;2022-07-23T01:50:43;95902.50;;;20.89;75.33
10978;BME280;5542;48.272;10.794;2022-07-23T01:53:09;95905.53;;;21.01;74.81
10978;BME280;5542;48.272;10.794;2022-07-23T01:55:36;95894.28;;;21.04;74.26
10978;BME280;5542;48.272;10.794;2022-07-23T01:58:04;95896.78;;;21.14;74.06
10978;BME280;5542;48.272;10.794;2022-07-23T02:00:31;95889.38;;;21.25;73.21
10978;BME280;5542;48.272;10.794;2022-07-23T02:02:58;95896.25;;;21.31;72.90
10978;BME280;5542;48.272;10.794;2022-07-23T02:05:25;95890.25;;;21.39;72.48
10978;BME280;5542;48.272;10.794;2022-07-23T02:07:54;95883.53;;;21.42;72.46
10978;BME280;5542;48.272;10.794;2022-07-23T02:10:20;95882.94;;;21.45;72.59
10978;BME280;5542;48.272;10.794;2022-07-23T02:12:47;95896.31;;;21.45;72.79
10978;BME280;5542;48.272;10.794;2022-07-23T02:15:15;95906.44;;;21.48;72.71
10978;BME280;5542;48.272;10.794;2022-07-23T02:17:42;95915.38;;;21.57;72.19
10978;BME280;5542;48.272;10.794;2022-07-23T02:20:10;95925.22;;;21.62;71.88
10978;BME280;5542;48.272;10.794;2022-07-23T02:22:37;95935.03;;;21.66;71.41
10978;BME280;5542;48.272;10.794;2022-07-23T02:25:05;95956.31;;;21.58;71.58
10978;BME280;5542;48.272;10.794;2022-07-23T02:27:32;95941.47;;;21.33;72.87
10978;BME280;5542;48.272;10.794;2022-07-23T02:29:59;95953.16;;;21.18;73.12
10978;BME280;5542;48.272;10.794;2022-07-23T02:32:27;95931.09;;;21.07;73.56
10978;BME280;5542;48.272;10.794;2022-07-23T02:34:53;95925.13;;;20.96;74.21
10978;BME280;5542;48.272;10.794;2022-07-23T02:37:20;95917.81;;;20.83;74.97
10978;BME280;5542;48.272;10.794;2022-07-23T02:39:47;95904.16;;;20.66;75.38
10978;BME280;5542;48.272;10.794;2022-07-23T02:42:14;95896.66;;;20.44;76.65
10978;BME280;5542;48.272;10.794;2022-07-23T02:44:40;95874.34;;;20.35;77.28
10978;BME280;5542;48.272;10.794;2022-07-23T02:47:07;95865.69;;;20.43;77.02
10978;BME280;5542;48.272;10.794;2022-07-23T02:49:35;95861.31;;;20.52;76.82
10978;BME280;5542;48.272;10.794;2022-07-23T02:52:02;95844.34;;;20.62;76.01
10978;BME280;5542;48.272;10.794;2022-07-23T02:54:29;95844.06;;;20.63;75.27
10978;BME280;5542;48.272;10.794;2022-07-23T02:56:55;95858.50;;;20.62;75.46
10978;BME280;5542;48.272;10.794;2022-07-23T02:59:22;95871.34;;;20.60;75.50
10978;BME280;5542;48.272;10.794;2022-07-23T03:01:48;95879.38;;;20.60;75.93
10978;BME280;5542;48.272;10.794;2022-07-23T03:04:15;95876.25;;;20.53;75.98
10978;BME280;5542;48.272;10.794;2022-07-23T03:06:43;95867.19;;;20.30;76.16
10978;BME280;5542;48.272;10.794;2022-07-23T03:09:09;95873.38;;;20.26;76.50
10978;BME280;5542;48.272;10.794;2022-07-23T03:11:36;95859.78;;;20.22;76.97
10978;BME280;5542;48.272;10.794;2022-07-23T03:14:03;95865.13;;;20.22;76.87
10978;BME280;5542;48.272;10.794;2022-07-23T03:16:29;95864.41;;;20.16;76.85
10978;BME280;5542;48.272;10.794;2022-07-23T03:18:56;95858.50;;;20.19;76.97
10978;BME280;5542;48.272;10.794;2022-07-23T03:21:22;95855.84;;;20.19;76.36
10978;BME280;5542;48.272;10.794;2022-07-23T03:23:50;95856.13;;;20.18;76.95
10978;BME280;5542;48.272;10.794;2022-07-23T03:26:17;95852.00;;;20.26;77.01
10978;BME280;5542;48.272;10.794;2022-07-23T03:28:43;95854.84;;;20.34;76.73
10978;BME280;5542;48.272;10.794;2022-07-23T03:31:10;95858.16;;;20.45;76.23
10978;BME280;5542;48.272;10.794;2022-07-23T03:33:36;95855.97;;;20.52;75.55
10978;BME280;5542;48.272;10.794;2022-07-23T03:36:03;95847.38;;;20.55;75.36
10978;BME280;5542;48.272;10.794;2022-07-23T03:38:30;95842.19;;;20.64;74.36
10978;BME280;5542;48.272;10.794;2022-07-23T03:40:58;95847.75;;;20.67;74.04
10978;BME280;5542;48.272;10.794;2022-07-23T03:43:24;95852.06;;;20.63;74.13
10978;BME280;5542;48.272;10.794;2022-07-23T03:45:51;95848.13;;;20.61;74.40
10978;BME280;5542;48.272;10.794;2022-07-23T03:48:17;95832.19;;;20.51;74.55
10978;BME280;5542;48.272;10.794;2022-07-23T03:50:44;95823.94;;;20.28;75.27
10978;BME280;5542;48.272;10.794;2022-07-23T03:53:10;95852.53;;;20.28;75.72
10978;BME280;5542;48.272;10.794;2022-07-23T03:55:37;95864.28;;;20.27;75.82
10978;BME280;5542;48.272;10.794;2022-07-23T03:58:05;95861.59;;;20.27;76.02
10978;BME280;5542;48.272;10.794;2022-07-23T04:00:32;95867.09;;;20.35;75.98
10978;BME280;5542;48.272;10.794;2022-07-23T04:02:58;95871.31;;;20.41;75.77
10978;BME280;5542;48.272;10.794;2022-07-23T04:05:25;95865.91;;;20.46;75.40
10978;BME280;5542;48.272;10.794;2022-07-23T04:07:51;95862.69;;;20.50;75.02
10978;BME280;5542;48.272;10.794;2022-07-23T04:10:18;95845.56;;;20.51;74.50
10978;BME280;5542;48.272;10.794;2022-07-23T04:12:44;95836.53;;;20.46;74.46
10978;BME280;5542;48.272;10.794;2022-07-23T04:15:12;95839.03;;;20.38;74.61
10978;BME280;5542;48.272;10.794;2022-07-23T04:17:39;95834.28;;;20.35;74.72
10978;BME280;5542;48.272;10.794;2022-07-23T04:20:06;95819.03;;;20.35;74.71
10978;BME280;5542;48.272;10.794;2022-07-23T04:22:33;95823.50;;;20.40;74.85
10978;BME280;5542;48.272;10.794;2022-07-23T04:24:59;95815.44;;;20.45;74.85
10978;BME280;5542;48.272;10.794;2022-07-23T04:27:26;95813.50;;;20.51;74.74
10978;BME280;5542;48.272;10.794;2022-07-23T04:29:52;95804.34;;;20.57;74.57
10978;BME280;5542;48.272;10.794;2022-07-23T04:32:20;95812.88;;;20.59;74.65
10978;BME280;5542;48.272;10.794;2022-07-23T04:34:47;95800.38;;;20.54;74.28
10978;BME280;5542;48.272;10.794;2022-07-23T04:37:13;95806.56;;;20.50;74.49
10978;BME280;5542;48.272;10.794;2022-07-23T04:39:40;95807.41;;;20.45;74.81
10978;BME280;5542;48.272;10.794;2022-07-23T04:42:06;95810.63;;;20.47;74.75
10978;BME280;5542;48.272;10.794;2022-07-23T04:44:33;95817.97;;;20.55;74.88
10978;BME280;5542;48.272;10.794;2022-07-23T04:47:00;95809.97;;;20.55;75.12
10978;BME280;5542;48.272;10.794;2022-07-23T04:49:28;95820.88;;;20.59;75.05
10978;BME280;5542;48.272;10.794;2022-07-23T04:51:54;95821.59;;;20.64;75.13
10978;BME280;5542;48.272;10.794;2022-07-23T04:54:21;95833.28;;;20.68;74.86
10978;BME280;5542;48.272;10.794;2022-07-23T04:56:47;95833.81;;;20.70;74.84
10978;BME280;5542;48.272;10.794;2022-07-23T04:59:14;95842.03;;;20.74;74.50
10978;BME280;5542;48.272;10.794;2022-07-23T05:01:40;95836.91;;;20.78;74.02
10978;BME280;5542;48.272;10.794;2022-07-23T05:04:08;95836.59;;;20.79;73.70
10978;BME280;5542;48.272;10.794;2022-07-23T05:06:35;95835.63;;;20.75;73.22
10978;BME280;5542;48.272;10.794;2022-07-23T05:09:02;95834.59;;;20.71;73.18
10978;BME280;5542;48.272;10.794;2022-07-23T05:11:29;95837.44;;;20.61;73.93
10978;BME280;5542;48.272;10.794;2022-07-23T05:13:55;95839.81;;;20.62;73.73
10978;BME280;5542;48.272;10.794;2022-07-23T05:16:22;95833.63;;;20.43;74.63
10978;BME280;5542;48.272;10.794;2022-07-23T05:18:48;95826.19;;;20.40;74.97
10978;BME280;5542;48.272;10.794;2022-07-23T05:21:15;95819.47;;;20.42;75.08
10978;BME280;5542;48.272;10.794;2022-07-23T05:23:43;95813.53;;;20.45;74.98
10978;BME280;5542;48.272;10.794;2022-07-23T05:26:10;95814.34;;;20.46;74.91
10978;BME280;5542;48.272;10.794;2022-07-23T05:28:36;95810.63;;;20.47;74.86
10978;BME280;5542;48.272;10.794;2022-07-23T05:31:03;95811.47;;;20.42;74.40
10978;BME280;5542;48.272;10.794;2022-07-23T05:33:30;95812.81;;;20.40;74.17
10978;BME280;5542;48.272;10.794;2022-07-23T05:36:00;95805.03;;;20.43;74.16
10978;BME280;5542;48.272;10.794;2022-07-23T05:38:29;95810.84;;;20.51;74.24
10978;BME280;5542;48.272;10.794;2022-07-23T05:40:57;95814.03;;;20.53;74.53
10978;BME280;5542;48.272;10.794;2022-07-23T05:43:24;95818.72;;;20.61;75.03
10978;BME280;5542;48.272;10.794;2022-07-23T05:45:51;95828.09;;;20.58;75.21
10978;BME280;5542;48.272;10.794;2022-07-23T05:48:17;95832.09;;;20.61;75.59
10978;BME280;5542;48.272;10.794;2022-07-23T05:50:44;95830.22;;;20.61;75.81
10978;BME280;5542;48.272;10.794;2022-07-23T05:53:11;95835.91;;;20.74;74.65
10978;BME280;5542;48.272;10.794;2022-07-23T05:55:37;95837.84;;;20.68;74.42
10978;BME280;5542;48.272;10.794;2022-07-23T05:58:05;95863.63;;;20.78;73.38
10978;BME280;5542;48.272;10.794;2022-07-23T06:00:32;95870.63;;;20.74;73.52
10978;BME280;5542;48.272;10.794;2022-07-23T06:02:59;95873.44;;;20.63;72.27
10978;BME280;5542;48.272;10.794;2022-07-23T06:05:26;95885.88;;;20.54;72.94
10978;BME280;5542;48.272;10.794;2022-07-23T06:07:52;95892.16;;;20.63;71.73
10978;BME280;5542;48.272;10.794;2022-07-23T06:10:19;95913.84;;;20.62;70.59
10978;BME280;5542;48.272;10.794;2022-07-23T06:12:46;95915.19;;;20.59;69.67
10978;BME280;5542;48.272;10.794;2022-07-23T06:15:14;95909.50;;;20.66;69.68
10978;BME280;5542;48.272;10.794;2022-07-23T06:17:40;95916.84;;;20.55;70.46
10978;BME280;5542;48.272;10.794;2022-07-23T06:20:08;95922.28;;;20.45;71.78
10978;BME280;5542;48.272;10.794;2022-07-23T06:22:35;95912.69;;;20.44;72.36
10978;BME280;5542;48.272;10.794;2022-07-23T06:25:03;95912.16;;;20.47;72.92
10978;BME280;5542;48.272;10.794;2022-07-23T06:27:29;95920.66;;;20.49;73.26
10978;BME280;5542;48.272;10.794;2022-07-23T06:29:56;95916.34;;;20.53;73.42
10978;BME280;5542;48.272;10.794;2022-07-23T06:32:24;95912.81;;;20.58;73.57
10978;BME280;5542;48.272;10.794;2022-07-23T06:34:50;95912.31;;;20.56;73.76
10978;BME280;5542;48.272;10.794;2022-07-23T06:37:17;95910.63;;;20.60;73.68
10978;BME280;5542;48.272;10.794;2022-07-23T06:39:43;95904.22;;;20.61;73.67
10978;BME280;5542;48.272;10.794;2022-07-23T06:42:10;95899.22;;;20.54;74.44
10978;BME280;5542;48.272;10.794;2022-07-23T06:44:37;95903.47;;;20.55;74.95
10978;BME280;5542;48.272;10.794;2022-07-23T06:47:04;95908.50;;;20.62;74.55
10978;BME280;5542;48.272;10.794;2022-07-23T06:49:32;95906.31;;;20.64;74.44
10978;BME280;5542;48.272;10.794;2022-07-23T06:51:59;95908.13;;;20.68;74.59
10978;BME280;5542;48.272;10.794;2022-07-23T06:54:25;95910.63;;;20.60;74.90
10978;BME280;5542;48.272;10.794;2022-07-23T06:56:52;95909.00;;;20.40;76.17
10978;BME280;5542;48.272;10.794;2022-07-23T06:59:19;95895.69;;;20.35;76.66
10978;BME280;5542;48.272;10.794;2022-07-23T07:01:45;95904.50;;;20.35;77.15
10978;BME280;5542;48.272;10.794;2022-07-23T07:04:12;95899.50;;;20.29;77.59
10978;BME280;5542;48.272;10.794;2022-07-23T07:06:40;95890.53;;;20.19;78.16
10978;BME280;5542;48.272;10.794;2022-07-23T07:09:06;95891.69;;;20.13;78.68
10978;BME280;5542;48.272;10.794;2022-07-23T07:11:33;95886.56;;;20.17;78.96
10978;BME280;5542;48.272;10.794;2022-07-23T07:14:00;95900.38;;;20.24;78.91
10978;BME280;5542;48.272;10.794;2022-07-23T07:16:26;95900.59;;;20.28;78.79
10978;BME280;5542;48.272;10.794;2022-07-23T07:18:53;95896.00;;;20.33;78.37
10978;BME280;5542;48.272;10.794;2022-07-23T07:21:19;95900.97;;;20.40;78.47
10978;BME280;5542;48.272;10.794;2022-07-23T07:23:47;95920.66;;;20.49;78.60
10978;BME280;5542;48.272;10.794;2022-07-23T07:26:14;95915.56;;;20.53;78.71
10978;BME280;5542;48.272;10.794;2022-07-23T07:28:41;95901.91;;;20.54;78.28
10978;BME280;5542;48.272;10.794;2022-07-23T07:31:07;95897.50;;;20.39;78.55
10978;BME280;5542;48.272;10.794;2022-07-23T07:33:34;95901.09;;;20.30;79.34
10978;BME280;5542;48.272;10.794;2022-07-23T07:36:00;95904.84;;;20.29;79.80
10978;BME280;5542;48.272;10.794;2022-07-23T07:38:28;95890.72;;;20.28;80.25
10978;BME280;5542;48.272;10.794;2022-07-23T07:40:56;95876.09;;;20.20;80.42
10978;BME280;5542;48.272;10.794;2022-07-23T07:43:23;95875.66;;;20.13;80.83
10978;BME280;5542;48.272;10.794;2022-07-23T07:45:50;95898.72;;;20.28;80.70
10978;BME280;5542;48.272;10.794;2022-07-23T07:48:16;95896.31;;;20.27;81.20
10978;BME280;5542;48.272;10.794;2022-07-23T07:50:43;95873.31;;;20.31;81.28
10978;BME280;5542;48.272;10.794;2022-07-23T07:53:10;95889.91;;;20.28;80.94
10978;BME280;5542;48.272;10.794;2022-07-23T07:55:36;95925.63;;;20.32;80.83
10978;BME280;5542;48.272;10.794;2022-07-23T07:58:05;95946.31;;;20.45;80.65
10978;BME280;5542;48.272;10.794;2022-07-23T08:00:32;95918.44;;;20.56;79.59
10978;BME280;5542;48.272;10.794;2022-07-23T08:02:59;95919.66;;;20.64;78.77
10978;BME280;5542;48.272;10.794;2022-07-23T08:05:28;95933.19;;;20.73;78.61
10978;BME280;5542;48.272;10.794;2022-07-23T08:07:56;95930.38;;;20.83;78.53
10978;BME280;5542;48.272;10.794;2022-07-23T08:10:23;95936.81;;;21.01;77.11
10978;BME280;5542;48.272;10.794;2022-07-23T08:12:51;95941.00;;;21.26;78.44
10978;BME280;5542;48.272;10.794;2022-07-23T08:15:21;95932.97;;;21.77;81.75
10978;BME280;5542;48.272;10.794;2022-07-23T08:17:48;95933.56;;;22.34;76.85
10978;BME280;5542;48.272;10.794;2022-07-23T08:20:17;95940.69;;;22.94;77.37
10978;BME280;5542;48.272;10.794;2022-07-23T08:22:46;95951.47;;;23.39;72.00
10978;BME280;5542;48.272;10.794;2022-07-23T08:25:13;95951.38;;;23.89;65.37
10978;BME280;5542;48.272;10.794;2022-07-23T08:27:40;95955.06;;;24.01;64.70
10978;BME280;5542;48.272;10.794;2022-07-23T08:30:08;95967.94;;;24.13;72.34
10978;BME280;5542;48.272;10.794;2022-07-23T08:32:49;95967.53;;;24.60;63.07
10978;BME280;5542;48.272;10.794;2022-07-23T08:35:16;95969.53;;;24.45;65.29
10978;BME280;5542;48.272;10.794;2022-07-23T08:37:43;95968.66;;;24.67;65.71
10978;BME280;5542;48.272;10.794;2022-07-23T08:40:10;95976.59;;;24.81;66.63
10978;BME280;5542;48.272;10.794;2022-07-23T08:42:37;95972.56;;;25.18;66.08
10978;BME280;5542;48.272;10.794;2022-07-23T08:45:07;95976.22;;;25.48;62.01
10978;BME280;5542;48.272;10.794;2022-07-23T08:47:34;95975.25;;;25.53;62.83
10978;BME280;5542;48.272;10.794;2022-07-23T08:50:04;95977.66;;;25.54;60.76
10978;BME280;5542;48.272;10.794;2022-07-23T08:52:31;95980.03;;;25.56;62.26
10978;BME280;5542;48.272;10.794;2022-07-23T08:54:58;95977.47;;;25.68;63.70
10978;BME280;5542;48.272;10.794;2022-07-23T08:57:25;95975.41;;;26.00;62.02
10978;BME280;5542;48.272;10.794;2022-07-23T08:59:51;95980.84;;;26.29;61.21
10978;BME280;5542;48.272;10.794;2022-07-23T09:02:18;95973.38;;;26.44;58.68
10978;BME280;5542;48.272;10.794;2022-07-23T09:04:44;95976.19;;;26.56;59.72
10978;BME280;5542;48.272;10.794;2022-07-23T09:07:12;95976.31;;;26.68;58.59
10978;BME280;5542;48.272;10.794;2022-07-23T09:09:39;95976.56;;;26.75;60.50
10978;BME280;5542;48.272;10.794;2022-07-23T09:12:07;95971.94;;;27.05;58.36
10978;BME280;5542;48.272;10.794;2022-07-23T09:14:39;95973.84;;;27.05;58.66
10978;BME280;5542;48.272;10.794;2022-07-23T09:17:10;95966.84;;;27.34;57.32
10978;BME280;5542;48.272;10.794;2022-07-23T09:19:37;95974.69;;;27.26;56.91
10978;BME280;5542;48.272;10.794;2022-07-23T09:22:18;95970.75;;;27.45;55.54
10978;BME280;5542;48.272;10.794;2022-07-23T09:25:04;95970.13;;;27.39;54.20
10978;BME280;5542;48.272;10.794;2022-07-23T09:27:47;95971.06;;;27.43;56.32
10978;BME280;5542;48.272;10.794;2022-07-23T09:30:13;95965.59;;;27.31;53.00
10978;BME280;5542;48.272;10.794;2022-07-23T09:32:41;95968.22;;;27.19;53.76
10978;BME280;5542;48.272;10.794;2022-07-23T09:35:07;95966.84;;;27.13;49.08
10978;BME280;5542;48.272;10.794;2022-07-23T09:37:35;95970.41;;;26.96;51.78
10978;BME280;5542;48.272;10.794;2022-07-23T09:40:06;95963.59;;;26.98;52.56
10978;BME280;5542;48.272;10.794;2022-07-23T09:42:34;95966.66;;;27.18;55.89
10978;BME280;5542;48.272;10.794;2022-07-23T09:45:01;95959.66;;;27.59;52.49
10978;BME280;5542;48.272;10.794;2022-07-23T09:47:30;95948.72;;;27.76;50.93
10978;BME280;5542;48.272;10.794;2022-07-23T09:50:01;95949.97;;;27.57;48.82
10978;BME280;5542;48.272;10.794;2022-07-23T09:52:31;95951.53;;;27.25;48.23
10978;BME280;5542;48.272;10.794;2022-07-23T09:55:01;95960.19;;;27.10;47.76
10978;BME280;5542;48.272;10.794;2022-07-23T09:57:29;95953.63;;;26.90;48.45
10978;BME280;5542;48.272;10.794;2022-07-23T09:59:58;95959.34;;;26.89;48.37
10978;BME280;5542;48.272;10.794;2022-07-23T10:02:27;95954.47;;;26.52;48.54
10978;BME280;5542;48.272;10.794;2022-07-23T10:04:54;95957.69;;;26.46;49.92
10978;BME280;5542;48.272;10.794;2022-07-23T10:07:22;95950.66;;;26.53;50.44
10978;BME280;5542;48.272;10.794;2022-07-23T10:09:50;95946.28;;;26.70;49.99
10978;BME280;5542;48.272;10.794;2022-07-23T10:12:19;95954.44;;;26.61;51.42
10978;BME280;5542;48.272;10.794;2022-07-23T10:14:56;95950.78;;;26.87;49.58
10978;BME280;5542;48.272;10.794;2022-07-23T10:17:23;95956.84;;;26.84;49.62
10978;BME280;5542;48.272;10.794;2022-07-23T10:19:50;95954.06;;;26.71;50.85
10978;BME280;5542;48.272;10.794;2022-07-23T10:22:20;95951.66;;;26.78;50.20
10978;BME280;5542;48.272;10.794;2022-07-23T10:25:10;95949.69;;;26.88;50.39
10978;BME280;5542;48.272;10.794;2022-07-23T10:28:02;95947.53;;;27.02;53.51
10978;BME280;5542;48.272;10.794;2022-07-23T10:30:35;95936.22;;;27.29;49.15
10978;BME280;5542;48.272;10.794;2022-07-23T10:33:17;95941.22;;;27.19;50.61
10978;BME280;5542;48.272;10.794;2022-07-23T10:35:53;95934.00;;;27.31;51.12
10978;BME280;5542;48.272;10.794;2022-07-23T10:38:25;95943.50;;;27.71;47.94
10978;BME280;5542;48.272;10.794;2022-07-23T10:40:55;95944.78;;;27.73;50.19
10978;BME280;5542;48.272;10.794;2022-07-23T10:43:24;95937.72;;;27.93;51.79
10978;BME280;5542;48.272;10.794;2022-07-23T10:45:52;95935.72;;;28.15;47.44
10978;BME280;5542;48.272;10.794;2022-07-23T10:48:20;95929.09;;;28.12;47.16
10978;BME280;5542;48.272;10.794;2022-07-23T10:51:09;95929.66;;;27.72;47.35
10978;BME280;5542;48.272;10.794;2022-07-23T10:54:03;95940.41;;;27.60;48.29
10978;BME280;5542;48.272;10.794;2022-07-23T10:56:49;95936.56;;;27.49;50.73
10978;BME280;5542;48.272;10.794;2022-07-23T10:59:17;95923.16;;;27.52;49.21
10978;BME280;5542;48.272;10.794;2022-07-23T11:01:43;95935.22;;;27.55;49.83
10978;BME280;5542;48.272;10.794;2022-07-23T11:04:10;95931.38;;;27.56;49.43
10978;BME280;5542;48.272;10.794;2022-07-23T11:07:06;95935.47;;;27.62;49.34
10978;BME280;5542;48.272;10.794;2022-07-23T11:09:39;95931.84;;;27.58;49.84
10978;BME280;5542;48.272;10.794;2022-07-23T11:12:34;95935.09;;;27.51;49.37
10978;BME280;5542;48.272;10.794;2022-07-23T11:15:06;95929.34;;;27.53;49.54
10978;BME280;5542;48.272;10.794;2022-07-23T11:17:36;95931.19;;;27.61;49.33
10978;BME280;5542;48.272;10.794;2022-07-23T11:20:15;95936.59;;;27.61;49.67
10978;BME280;5542;48.272;10.794;2022-07-23T11:22:48;95938.91;;;27.71;49.16
10978;BME280;5542;48.272;10.794;2022-07-23T11:25:29;95937.28;;;27.70;49.17
10978;BME280;5542;48.272;10.794;2022-07-23T11:28:08;95921.16;;;27.83;49.20
10978;BME280;5542;48.272;10.794;2022-07-23T11:30:42;95923.34;;;28.01;48.47
10978;BME280;5542;48.272;10.794;2022-07-23T11:33:20;95922.09;;;27.99;49.37
10978;BME280;5542;48.272;10.794;2022-07-23T11:35:49;95911.19;;;28.07;47.62
10978;BME280;5542;48.272;10.794;2022-07-23T11:38:18;95916.25;;;27.97;48.10
10978;BME280;5542;48.272;10.794;2022-07-23T11:40:47;95918.47;;;27.95;46.92
10978;BME280;5542;48.272;10.794;2022-07-23T11:43:15;95916.41;;;27.79;48.55
10978;BME280;5542;48.272;10.794;2022-07-23T11:45:45;95909.22;;;27.96;48.08
10978;BME280;5542;48.272;10.794;2022-07-23T11:48:17;95916.94;;;28.18;46.82
10978;BME280;5542;48.272;10.794;2022-07-23T11:50:44;95925.94;;;28.10;47.66
10978;BME280;5542;48.272;10.794;2022-07-23T11:53:10;95921.44;;;28.14;47.56
10978;BME280;5542;48.272;10.794;2022-07-23T11:55:37;95925.72;;;28.15;47.18
10978;BME280;5542;48.272;10.794;2022-07-23T11:58:04;95911.53;;;28.18;47.66
10978;BME280;5542;48.272;10.794;2022-07-23T12:00:31;95905.22;;;28.14;47.18
10978;BME280;5542;48.272;10.794;2022-07-23T12:03:00;95904.06;;;28.15;47.76
10978;BME280;5542;48.272;10.794;2022-07-23T12:05:29;95902.25;;;27.95;48.01
10978;BME280;5542;48.272;10.794;2022-07-23T12:07:57;95899.16;;;27.72;48.36
10978;BME280;5542;48.272;10.794;2022-07-23T12:10:25;95885.91;;;27.58;48.91
10978;BME280;5542;48.272;10.794;2022-07-23T12:12:54;95897.41;;;27.55;49.67
10978;BME280;5542;48.272;10.794;2022-07-23T12:15:23;95895.00;;;27.41;49.81
10978;BME280;5542;48.272;10.794;2022-07-23T12:17:51;95893.56;;;27.56;50.43
10978;BME280;5542;48.272;10.794;2022-07-23T12:20:23;95904.59;;;27.51;49.87
10978;BME280;5542;48.272;10.794;2022-07-23T12:22:52;95897.41;;;27.34;50.16
10978;BME280;5542;48.272;10.794;2022-07-23T12:25:20;95899.50;;;27.16;51.18
10978;BME280;5542;48.272;10.794;2022-07-23T12:27:58;95912.56;;;27.05;51.00
10978;BME280;5542;48.272;10.794;2022-07-23T12:30:27;95911.03;;;26.96;50.71
10978;BME280;5542;48.272;10.794;2022-07-23T12:32:56;95900.78;;;26.89;50.69
10978;BME280;5542;48.272;10.794;2022-07-23T12:35:31;95914.31;;;26.80;51.60
10978;BME280;5542;48.272;10.794;2022-07-23T12:38:01;95902.69;;;26.89;51.34
10978;BME280;5542;48.272;10.794;2022-07-23T12:40:31;95913.34;;;27.06;51.85
10978;BME280;5542;48.272;10.794;2022-07-23T12:43:00;95911.03;;;27.25;51.43
10978;BME280;5542;48.272;10.794;2022-07-23T12:45:40;95909.31;;;27.21;51.27
10978;BME280;5542;48.272;10.794;2022-07-23T12:48:08;95915.94;;;27.23;51.41
10978;BME280;5542;48.272;10.794;2022-07-23T12:50:44;95926.22;;;27.09;51.46
10978;BME280;5542;48.272;10.794;2022-07-23T12:53:15;95922.13;;;27.03;52.01
10978;BME280;5542;48.272;10.794;2022-07-23T12:55:43;95922.50;;;26.93;52.91
10978;BME280;5542;48.272;10.794;2022-07-23T12:58:13;95926.25;;;26.79;53.15
10978;BME280;5542;48.272;10.794;2022-07-23T13:00:59;95923.34;;;26.85;52.16
10978;BME280;5542;48.272;10.794;2022-07-23T13:03:29;95912.75;;;26.79;52.69
10978;BME280;5542;48.272;10.794;2022-07-23T13:05:59;95911.28;;;26.82;52.55